Zephyrhills, Florida
Current Conditions -  °F | °C
As of 6:15 PM on Friday 31 Oct 2014 (Local Time) from KZPH Reporting Station
Clear Clear  
Wind Chill: 68°   Ceiling: Unl
Heat Index: 68°   Visibility: 10mi
Dew Point: 43°   Wind: 12mph
Humidity: 40%   Direction: 300°WNW
Pressure: 29.87"   Gusts: 16mph
Location:  28.23°N, 82.18°W
Report Text: KZPH 312215Z AUTO 30010G14KT 10SM CLR 20/06 A2987 RMK AO2
Loading
Personal Weather Stations






























Interactive Weather Map
Tropical Storm Tracking
New forecast layout! Learn more

10-Day Weather Forecast

Advertisements
Track Severe Weather on mobile